Time;durP1;ratioP1;P1;durP2;ratioP2;P2;SDS_P1;SDS_P2;PMS_P1;PMS_P2;Temp;Humidity;BMP_temperature;BMP_pressure;BME280_temperature;BME280_humidity;BME280_pressure;Samples;Min_cycle;Max_cycle;Signal;HPM_P1;HPM_P2
2022/05/04 00:00:44;;;;;;;2.08;1.70;;;;;;;;;;4897730;29;20041;-79
2022/05/04 00:03:11;;;;;;;1.98;1.80;;;;;;;;;;4897159;29;20060;-80
2022/05/04 00:05:37;;;;;;;4.18;1.90;;;;;;;;;;4896900;29;20045;-80
2022/05/04 00:08:03;;;;;;;4.53;1.95;;;;;;;;;;4897408;29;20051;-80
2022/05/04 00:10:30;;;;;;;2.08;1.90;;;;;;;;;;4897328;29;20207;-79
2022/05/04 00:12:57;;;;;;;2.08;1.90;;;;;;;;;;4897115;29;20132;-79
2022/05/04 00:15:23;;;;;;;2.53;1.90;;;;;;;;;;4880386;29;20523;-78
2022/05/04 00:17:49;;;;;;;3.50;1.80;;;;;;;;;;4896321;29;20541;-79
2022/05/04 00:20:15;;;;;;;1.92;1.83;;;;;;;;;;4896770;29;20045;-79
2022/05/04 00:22:41;;;;;;;2.78;2.10;;;;;;;;;;4896508;29;20051;-78
2022/05/04 00:25:07;;;;;;;3.22;2.20;;;;;;;;;;4879750;29;20041;-78
2022/05/04 00:27:34;;;;;;;1.98;1.88;;;;;;;;;;4879917;29;20490;-78
2022/05/04 00:30:00;;;;;;;1.95;1.85;;;;;;;;;;4879496;29;20535;-79
2022/05/04 00:32:26;;;;;;;3.30;2.03;;;;;;;;;;4879699;29;20170;-77
2022/05/04 00:34:52;;;;;;;2.83;2.20;;;;;;;;;;4896245;29;20040;-78
2022/05/04 00:37:18;;;;;;;3.40;2.17;;;;;;;;;;4872872;29;20520;-77
2022/05/04 00:39:44;;;;;;;2.00;1.90;;;;;;;;;;4892571;29;20056;-77
2022/05/04 00:42:10;;;;;;;2.42;1.80;;;;;;;;;;4900737;29;20081;-79
2022/05/04 00:44:37;;;;;;;1.80;1.70;;;;;;;;;;4896694;29;20049;-79
2022/05/04 00:47:03;;;;;;;2.65;2.40;;;;;;;;;;4896266;29;20045;-78
2022/05/04 00:49:29;;;;;;;2.33;1.92;;;;;;;;;;4863959;29;20048;-79
2022/05/04 00:51:55;;;;;;;1.90;1.80;;;;;;;;;;4863146;29;20432;-78
2022/05/04 00:54:21;;;;;;;2.58;1.85;;;;;;;;;;4879505;29;20570;-79
2022/05/04 00:56:47;;;;;;;3.90;1.90;;;;;;;;;;4879794;29;20033;-79
2022/05/04 00:59:13;;;;;;;2.33;2.22;;;;;;;;;;4895687;29;20088;-78
2022/05/04 01:01:39;;;;;;;2.17;1.98;;;;;;;;;;4896104;29;20028;-79
2022/05/04 01:04:05;;;;;;;1.70;1.60;;;;;;;;;;4895479;29;20430;-78
2022/05/04 01:06:31;;;;;;;2.00;1.90;;;;;;;;;;4895803;29;20036;-78
2022/05/04 01:08:58;;;;;;;1.90;1.73;;;;;;;;;;4878259;29;20052;-77
2022/05/04 01:11:23;;;;;;;2.45;1.80;;;;;;;;;;4896566;29;20480;-78
2022/05/04 01:14:00;;;;;;;2.42;1.58;;;;;;;;;;4913358;29;20076;-81
2022/05/04 01:16:26;;;;;;;1.63;1.52;;;;;;;;;;4893636;29;20048;-82
2022/05/04 01:18:52;;;;;;;1.80;1.67;;;;;;;;;;4898049;29;20145;-83
2022/05/04 01:21:18;;;;;;;1.58;1.50;;;;;;;;;;4918483;29;20044;-86
2022/05/04 01:23:44;;;;;;;1.83;1.73;;;;;;;;;;4910992;29;20041;-82
2022/05/04 01:26:10;;;;;;;1.80;1.70;;;;;;;;;;4895538;29;20076;-83
2022/05/04 01:28:36;;;;;;;1.70;1.60;;;;;;;;;;4899437;29;20044;-83
2022/05/04 01:31:02;;;;;;;1.77;1.67;;;;;;;;;;4916904;29;20041;-83
2022/05/04 01:33:28;;;;;;;1.70;1.60;;;;;;;;;;4913458;29;20049;-83
2022/05/04 01:35:54;;;;;;;2.90;2.10;;;;;;;;;;4912851;29;20084;-82
2022/05/04 01:38:20;;;;;;;2.20;2.03;;;;;;;;;;4894592;29;20056;-82
2022/05/04 01:40:46;;;;;;;1.70;1.60;;;;;;;;;;4913523;29;20041;-82
2022/05/04 01:43:11;;;;;;;2.03;1.80;;;;;;;;;;4914764;29;20103;-81
2022/05/04 01:45:38;;;;;;;1.75;1.65;;;;;;;;;;4909065;29;20072;-80
2022/05/04 01:48:04;;;;;;;1.60;1.50;;;;;;;;;;4896115;29;20143;-80
2022/05/04 01:50:30;;;;;;;2.50;1.95;;;;;;;;;;4883084;29;20051;-79
2022/05/04 01:52:55;;;;;;;2.38;1.83;;;;;;;;;;4899490;29;20416;-81
2022/05/04 01:55:22;;;;;;;4.85;2.80;;;;;;;;;;4884779;29;20408;-81
2022/05/04 01:57:48;;;;;;;2.95;2.65;;;;;;;;;;4883902;29;20048;-79
2022/05/04 02:00:14;;;;;;;2.22;2.00;;;;;;;;;;4882245;29;20089;-81
2022/05/04 02:02:42;;;;;;;3.33;2.50;;;;;;;;;;4900557;29;20044;-82
2022/05/04 02:05:08;;;;;;;5.20;2.20;;;;;;;;;;4881292;29;20105;-80
2022/05/04 02:07:35;;;;;;;2.30;2.10;;;;;;;;;;4899082;29;20076;-80
2022/05/04 02:10:01;;;;;;;2.35;2.17;;;;;;;;;;4898894;29;20446;-81
2022/05/04 02:12:28;;;;;;;2.28;2.17;;;;;;;;;;4906173;29;20112;-81
2022/05/04 02:14:54;;;;;;;3.53;3.20;;;;;;;;;;4906927;29;20071;-82
2022/05/04 02:17:20;;;;;;;3.63;2.25;;;;;;;;;;4885984;29;20056;-81
2022/05/04 02:19:46;;;;;;;2.42;2.22;;;;;;;;;;4901995;29;20064;-81
2022/05/04 02:22:12;;;;;;;2.70;2.50;;;;;;;;;;4885076;29;20056;-82
2022/05/04 02:24:38;;;;;;;2.08;1.98;;;;;;;;;;4903446;29;20431;-82
2022/05/04 02:27:04;;;;;;;3.45;2.60;;;;;;;;;;4892166;29;20049;-81
2022/05/04 02:29:31;;;;;;;2.83;2.20;;;;;;;;;;4902338;29;20535;-81
2022/05/04 02:31:58;;;;;;;2.47;2.28;;;;;;;;;;4904650;29;20044;-80
2022/05/04 02:34:24;;;;;;;3.65;2.40;;;;;;;;;;4901843;29;20068;-81
2022/05/04 02:39:35;;;;;;;2.92;2.30;;;;;;;;;;4908150;29;20082;-82
2022/05/04 02:42:03;;;;;;;2.40;2.20;;;;;;;;;;4901304;29;20048;-81
2022/05/04 02:44:28;;;;;;;4.20;2.28;;;;;;;;;;4907508;29;20048;-81
2022/05/04 02:46:55;;;;;;;2.63;2.42;;;;;;;;;;4878077;29;20093;-82
2022/05/04 02:49:20;;;;;;;3.85;2.00;;;;;;;;;;4905553;29;20058;-83
2022/05/04 02:51:46;;;;;;;2.72;2.50;;;;;;;;;;4888871;29;20041;-82
2022/05/04 02:54:12;;;;;;;8.00;2.95;;;;;;;;;;4902454;29;20040;-78
2022/05/04 02:56:39;;;;;;;6.32;2.65;;;;;;;;;;4882376;29;20055;-82
2022/05/04 02:59:04;;;;;;;5.53;3.00;;;;;;;;;;4881381;29;20048;-81
2022/05/04 03:04:15;;;;;;;2.60;2.40;;;;;;;;;;4903770;29;20181;-80
2022/05/04 03:06:41;;;;;;;2.22;2.13;;;;;;;;;;4904841;29;20044;-80
2022/05/04 03:09:07;;;;;;;5.65;2.83;;;;;;;;;;4895144;29;20048;-78
2022/05/04 03:14:18;;;;;;;2.67;2.40;;;;;;;;;;4897806;29;20650;-82
2022/05/04 03:16:45;;;;;;;1.83;1.73;;;;;;;;;;4918764;29;20092;-81
2022/05/04 03:19:11;;;;;;;2.95;2.67;;;;;;;;;;4915830;29;20068;-83
2022/05/04 03:21:36;;;;;;;3.15;2.50;;;;;;;;;;4916915;29;20048;-80
2022/05/04 03:24:02;;;;;;;2.80;2.60;;;;;;;;;;4907755;29;20129;-81
2022/05/04 03:26:28;;;;;;;3.35;2.00;;;;;;;;;;4907528;29;20479;-79
2022/05/04 03:28:55;;;;;;;2.92;2.35;;;;;;;;;;4907046;29;20056;-82
2022/05/04 03:31:21;;;;;;;2.97;2.20;;;;;;;;;;4912441;29;20049;-82
2022/05/04 03:33:47;;;;;;;3.28;1.90;;;;;;;;;;4888402;29;20056;-84
2022/05/04 03:36:12;;;;;;;3.33;2.30;;;;;;;;;;4900466;29;20046;-81
2022/05/04 03:38:38;;;;;;;7.88;1.90;;;;;;;;;;4898772;29;20056;-82
2022/05/04 03:41:04;;;;;;;3.55;1.83;;;;;;;;;;4904014;29;20041;-82
2022/05/04 03:43:30;;;;;;;2.22;2.10;;;;;;;;;;4902233;29;20438;-82
2022/05/04 03:46:10;;;;;;;6.45;1.85;;;;;;;;;;4904511;29;20179;-82
2022/05/04 03:48:36;;;;;;;11.73;1.93;;;;;;;;;;4904479;29;20053;-81
2022/05/04 03:51:02;;;;;;;1.80;1.70;;;;;;;;;;4896214;29;20058;-82
2022/05/04 03:53:28;;;;;;;2.08;1.70;;;;;;;;;;4917454;29;20053;-85
2022/05/04 03:55:53;;;;;;;2.42;2.17;;;;;;;;;;4920114;29;20033;-83
2022/05/04 03:58:19;;;;;;;2.88;1.90;;;;;;;;;;4920589;29;20359;-84
2022/05/04 04:00:45;;;;;;;1.95;1.85;;;;;;;;;;4916767;29;20100;-83
2022/05/04 04:03:11;;;;;;;2.70;2.03;;;;;;;;;;4898450;29;20065;-82
2022/05/04 04:05:37;;;;;;;1.95;1.85;;;;;;;;;;4912311;29;20079;-83
2022/05/04 04:08:03;;;;;;;2.28;2.00;;;;;;;;;;4905681;29;20084;-77
2022/05/04 04:10:29;;;;;;;1.90;1.80;;;;;;;;;;4911296;29;20076;-76
2022/05/04 04:12:55;;;;;;;4.82;2.03;;;;;;;;;;4916643;29;20091;-80
2022/05/04 04:15:20;;;;;;;6.68;2.20;;;;;;;;;;4904736;29;20597;-80
2022/05/04 04:17:47;;;;;;;2.05;1.90;;;;;;;;;;4896607;29;20083;-78
2022/05/04 04:22:57;;;;;;;2.13;1.85;;;;;;;;;;4908709;29;20100;-82
2022/05/04 04:25:23;;;;;;;1.52;1.45;;;;;;;;;;4879136;29;20045;-77
2022/05/04 04:27:49;;;;;;;2.42;1.70;;;;;;;;;;4884569;29;20096;-73
2022/05/04 04:30:15;;;;;;;2.00;1.90;;;;;;;;;;4913768;29;20040;-74
2022/05/04 04:32:41;;;;;;;2.00;1.90;;;;;;;;;;4908924;29;20459;-75
2022/05/04 04:35:07;;;;;;;1.77;1.67;;;;;;;;;;4893127;29;20036;-75
2022/05/04 04:37:33;;;;;;;2.75;2.47;;;;;;;;;;4894701;29;20084;-75
2022/05/04 04:39:59;;;;;;;2.65;1.90;;;;;;;;;;4895752;29;20198;-75
2022/05/04 04:42:25;;;;;;;3.42;2.08;;;;;;;;;;4895638;29;20036;-73
2022/05/04 04:44:50;;;;;;;4.93;1.90;;;;;;;;;;4874178;29;20048;-73
2022/05/04 04:47:16;;;;;;;2.00;1.85;;;;;;;;;;4860205;29;20041;-74
2022/05/04 04:49:42;;;;;;;6.97;1.80;;;;;;;;;;4879825;29;20419;-75
2022/05/04 04:52:08;;;;;;;6.53;2.05;;;;;;;;;;4892870;29;20441;-74
2022/05/04 04:54:34;;;;;;;1.55;1.45;;;;;;;;;;4877478;29;20048;-74
2022/05/04 04:57:00;;;;;;;2.97;1.67;;;;;;;;;;4894029;29;20041;-75
2022/05/04 04:59:26;;;;;;;1.90;1.50;;;;;;;;;;4893196;29;20048;-76
2022/05/04 05:01:52;;;;;;;2.97;1.15;;;;;;;;;;4893845;29;20045;-77
2022/05/04 05:04:18;;;;;;;3.75;1.95;;;;;;;;;;4893982;29;20362;-77
2022/05/04 05:06:44;;;;;;;1.40;1.40;;;;;;;;;;4893699;29;20151;-76
2022/05/04 05:09:10;;;;;;;1.95;1.45;;;;;;;;;;4893740;29;20121;-75
2022/05/04 05:11:36;;;;;;;1.23;1.23;;;;;;;;;;4892933;29;20101;-75
2022/05/04 05:16:46;;;;;;;2.10;2.00;;;;;;;;;;4892177;29;20084;-74
2022/05/04 05:19:12;;;;;;;0.88;0.88;;;;;;;;;;4893662;29;20095;-74
2022/05/04 05:21:38;;;;;;;2.10;1.58;;;;;;;;;;4877218;29;20140;-74
2022/05/04 05:24:05;;;;;;;2.05;1.85;;;;;;;;;;4893073;29;20053;-72
2022/05/04 05:26:31;;;;;;;2.45;1.73;;;;;;;;;;4894212;29;20119;-74
2022/05/04 05:28:57;;;;;;;2.30;2.10;;;;;;;;;;4876051;29;20143;-73
2022/05/04 05:31:23;;;;;;;1.70;1.60;;;;;;;;;;4877131;29;20520;-73
2022/05/04 05:33:49;;;;;;;1.50;1.40;;;;;;;;;;4876874;29;20044;-72
2022/05/04 05:36:14;;;;;;;2.70;2.20;;;;;;;;;;4860018;29;20036;-72
2022/05/04 05:38:43;;;;;;;4.00;2.33;;;;;;;;;;4893004;29;20059;-74
2022/05/04 05:41:09;;;;;;;1.77;1.67;;;;;;;;;;4874820;29;20044;-73
2022/05/04 05:43:34;;;;;;;1.50;1.40;;;;;;;;;;4876568;29;20101;-73
2022/05/04 05:46:00;;;;;;;2.00;1.63;;;;;;;;;;4876639;29;20079;-74
2022/05/04 05:48:26;;;;;;;3.03;1.80;;;;;;;;;;4892874;29;20152;-77
2022/05/04 05:50:53;;;;;;;2.20;2.00;;;;;;;;;;4893496;29;20053;-76
2022/05/04 05:53:19;;;;;;;2.25;2.03;;;;;;;;;;4892514;29;20052;-74
2022/05/04 05:55:45;;;;;;;2.95;1.80;;;;;;;;;;4893733;29;20041;-75
2022/05/04 05:58:11;;;;;;;2.22;1.98;;;;;;;;;;4894156;29;20060;-74
2022/05/04 06:00:37;;;;;;;4.20;2.00;;;;;;;;;;4875596;29;20592;-74
2022/05/04 06:03:03;;;;;;;1.92;1.80;;;;;;;;;;4893539;29;20035;-73
2022/05/04 06:05:29;;;;;;;8.38;1.85;;;;;;;;;;4893993;29;20057;-73
2022/05/04 06:07:55;;;;;;;2.00;1.60;;;;;;;;;;4893259;29;20036;-73
2022/05/04 06:10:21;;;;;;;1.63;1.52;;;;;;;;;;4893146;29;20056;-73
2022/05/04 06:12:46;;;;;;;1.90;1.80;;;;;;;;;;4881251;29;20028;-73
2022/05/04 06:15:14;;;;;;;2.13;1.90;;;;;;;;;;4876107;29;20139;-76
2022/05/04 06:17:41;;;;;;;1.33;1.33;;;;;;;;;;4876363;29;20604;-76
2022/05/04 06:20:07;;;;;;;1.38;1.30;;;;;;;;;;4875841;29;20159;-75
2022/05/04 06:22:33;;;;;;;1.98;1.73;;;;;;;;;;4893383;29;20739;-73
2022/05/04 06:24:59;;;;;;;1.35;1.35;;;;;;;;;;4892177;29;20048;-75
2022/05/04 06:27:25;;;;;;;1.85;1.75;;;;;;;;;;4892609;29;20045;-76
2022/05/04 06:35:20;;;;;;;3.40;1.35;;;;;;;;;;4893230;29;20059;-77
2022/05/04 06:37:46;;;;;;;2.15;1.98;;;;;;;;;;4892432;29;20037;-76
2022/05/04 06:40:16;;;;;;;2.45;2.20;;;;;;;;;;4892719;29;20068;-77
2022/05/04 06:42:42;;;;;;;2.58;2.30;;;;;;;;;;4893531;29;20047;-80
2022/05/04 06:45:08;;;;;;;2.30;2.00;;;;;;;;;;4894254;29;20048;-77
2022/05/04 06:47:34;;;;;;;2.28;2.10;;;;;;;;;;4893106;29;20080;-79
2022/05/04 06:50:00;;;;;;;5.95;2.50;;;;;;;;;;4893916;29;20051;-79
2022/05/04 06:52:26;;;;;;;2.17;2.08;;;;;;;;;;4877223;29;20172;-77
2022/05/04 06:54:52;;;;;;;1.42;1.42;;;;;;;;;;4880308;29;20093;-78
2022/05/04 06:57:19;;;;;;;2.15;2.03;;;;;;;;;;4895805;29;20056;-75
2022/05/04 06:59:45;;;;;;;2.90;2.55;;;;;;;;;;4896247;29;20057;-74
2022/05/04 07:02:10;;;;;;;7.63;2.17;;;;;;;;;;4895517;29;20040;-75
2022/05/04 07:04:36;;;;;;;14.05;2.22;;;;;;;;;;4896871;29;20044;-74
2022/05/04 07:07:03;;;;;;;14.30;1.88;;;;;;;;;;4896385;29;20423;-74
2022/05/04 07:09:28;;;;;;;7.97;1.50;;;;;;;;;;4896089;29;20049;-74
2022/05/04 11:31:54;;;;;;;1.30;1.30;;;;;;;;;;4886180;29;20066;-74
2022/05/04 11:34:21;;;;;;;2.40;1.65;;;;;;;;;;4858386;29;20036;-73
2022/05/04 11:36:47;;;;;;;3.28;1.60;;;;;;;;;;4879402;29;20048;-74
2022/05/04 11:39:15;;;;;;;1.45;1.40;;;;;;;;;;4877737;29;20053;-74
2022/05/04 11:41:42;;;;;;;1.42;1.33;;;;;;;;;;4876816;29;20041;-74
2022/05/04 11:44:07;;;;;;;2.42;1.58;;;;;;;;;;4894475;29;20170;-73
2022/05/04 11:46:33;;;;;;;2.78;2.40;;;;;;;;;;4847573;29;20131;-73
2022/05/04 11:48:59;;;;;;;2.40;2.22;;;;;;;;;;4895025;29;20055;-73
2022/05/04 11:51:25;;;;;;;1.70;1.60;;;;;;;;;;4893621;29;20123;-73
2022/05/04 11:53:52;;;;;;;1.40;1.40;;;;;;;;;;4876686;29;20041;-73
2022/05/04 11:56:18;;;;;;;1.35;1.35;;;;;;;;;;4893306;29;20052;-73
2022/05/04 11:58:44;;;;;;;1.58;1.55;;;;;;;;;;4877364;29;20049;-73
2022/05/04 12:01:13;;;;;;;1.40;1.30;;;;;;;;;;4893647;29;20115;-73
2022/05/04 12:03:39;;;;;;;1.48;1.40;;;;;;;;;;4893649;29;20412;-73
2022/05/04 12:06:06;;;;;;;1.23;1.23;;;;;;;;;;4893803;29;20044;-73
2022/05/04 12:08:32;;;;;;;1.23;1.23;;;;;;;;;;4892794;29;20051;-74
2022/05/04 12:10:58;;;;;;;2.17;1.83;;;;;;;;;;4877112;29;20048;-75
2022/05/04 12:13:24;;;;;;;4.82;1.77;;;;;;;;;;4876485;29;20447;-74
2022/05/04 12:15:52;;;;;;;1.52;1.48;;;;;;;;;;4876935;29;20036;-74
2022/05/04 12:18:18;;;;;;;1.83;1.73;;;;;;;;;;4893881;29;20523;-74
2022/05/04 12:20:44;;;;;;;1.85;1.75;;;;;;;;;;4876009;29;20044;-73
2022/05/04 12:23:10;;;;;;;1.48;1.45;;;;;;;;;;4894120;29;20093;-74
2022/05/04 12:25:36;;;;;;;1.63;1.52;;;;;;;;;;4893132;29;20037;-74
2022/05/04 12:28:02;;;;;;;2.60;2.00;;;;;;;;;;4876707;29;20066;-73
2022/05/04 12:33:13;;;;;;;2.83;2.65;;;;;;;;;;4898234;29;20053;-73
2022/05/04 12:35:38;;;;;;;3.50;2.30;;;;;;;;;;4897985;29;20041;-73
2022/05/04 12:38:05;;;;;;;3.10;2.80;;;;;;;;;;4876328;29;20104;-74
2022/05/04 12:40:31;;;;;;;1.85;1.75;;;;;;;;;;4878004;29;20052;-73
2022/05/04 12:42:59;;;;;;;2.40;2.20;;;;;;;;;;4893144;29;20555;-73
2022/05/04 12:45:26;;;;;;;2.55;1.85;;;;;;;;;;4879017;29;20071;-74
2022/05/04 12:47:54;;;;;;;2.00;1.90;;;;;;;;;;4891434;29;20499;-73
2022/05/04 12:50:21;;;;;;;3.05;2.05;;;;;;;;;;4893220;29;20043;-74
2022/05/04 12:52:48;;;;;;;2.00;1.90;;;;;;;;;;4877100;29;20139;-75
2022/05/04 12:55:14;;;;;;;2.95;2.63;;;;;;;;;;4892517;29;20152;-78
2022/05/04 12:57:40;;;;;;;2.00;1.90;;;;;;;;;;4876227;29;20091;-75
2022/05/04 13:00:06;;;;;;;2.30;2.10;;;;;;;;;;4877864;29;20638;-76
2022/05/04 13:02:32;;;;;;;2.25;2.15;;;;;;;;;;4895313;29;20028;-73
2022/05/04 13:04:58;;;;;;;1.48;1.48;;;;;;;;;;4876958;29;20504;-73
2022/05/04 13:07:24;;;;;;;1.60;1.52;;;;;;;;;;4874629;29;20033;-73
2022/05/04 13:09:50;;;;;;;2.33;2.13;;;;;;;;;;4892580;29;20056;-75
2022/05/04 13:12:17;;;;;;;2.25;1.98;;;;;;;;;;4894188;29;20041;-73
2022/05/04 13:14:42;;;;;;;5.55;2.28;;;;;;;;;;4890683;29;20085;-74
2022/05/04 13:17:08;;;;;;;1.88;1.77;;;;;;;;;;4892436;29;20036;-73
2022/05/04 13:19:36;;;;;;;1.50;1.45;;;;;;;;;;4891934;29;20060;-73
2022/05/04 13:22:02;;;;;;;3.20;2.17;;;;;;;;;;4892928;29;20044;-73
2022/05/04 13:24:27;;;;;;;3.22;1.75;;;;;;;;;;4892948;29;20048;-73
2022/05/04 13:26:53;;;;;;;1.45;1.45;;;;;;;;;;4893758;29;20043;-75
2022/05/04 13:29:19;;;;;;;3.67;1.90;;;;;;;;;;4896105;29;20197;-74
2022/05/04 13:31:45;;;;;;;2.00;1.90;;;;;;;;;;4876646;29;20707;-75
2022/05/04 13:34:11;;;;;;;8.07;2.03;;;;;;;;;;4877811;29;20075;-74
2022/05/04 13:36:37;;;;;;;5.40;2.03;;;;;;;;;;4877452;29;20048;-73
2022/05/04 13:39:03;;;;;;;1.90;1.80;;;;;;;;;;4893267;29;20063;-74
2022/05/04 13:41:30;;;;;;;6.28;2.92;;;;;;;;;;4893244;29;20091;-74
2022/05/04 13:43:57;;;;;;;2.55;2.17;;;;;;;;;;4892190;29;20072;-73
2022/05/04 13:46:23;;;;;;;4.50;2.60;;;;;;;;;;4893073;29;20508;-74
2022/05/04 13:48:49;;;;;;;9.65;3.75;;;;;;;;;;4892179;29;20056;-76
2022/05/04 13:54:00;;;;;;;2.30;2.13;;;;;;;;;;4878916;29;20109;-73
2022/05/04 13:56:27;;;;;;;2.35;2.00;;;;;;;;;;4892880;29;20041;-72
2022/05/04 13:58:53;;;;;;;5.18;2.40;;;;;;;;;;4893444;29;20065;-73
2022/05/04 14:01:19;;;;;;;5.22;1.75;;;;;;;;;;4891988;29;20644;-71
2022/05/04 14:03:45;;;;;;;1.65;1.50;;;;;;;;;;4876446;29;20531;-71
2022/05/04 14:06:11;;;;;;;1.85;1.30;;;;;;;;;;4893677;29;20036;-73
2022/05/04 14:08:37;;;;;;;1.60;1.52;;;;;;;;;;4892998;29;20676;-70
2022/05/04 14:11:03;;;;;;;1.65;1.58;;;;;;;;;;4891697;29;20047;-72
2022/05/04 14:13:29;;;;;;;1.55;1.50;;;;;;;;;;4878834;29;20535;-73
2022/05/04 14:15:56;;;;;;;5.88;1.73;;;;;;;;;;4892575;29;20033;-72
2022/05/04 14:18:22;;;;;;;4.97;1.52;;;;;;;;;;4894044;29;20416;-73
2022/05/04 14:20:48;;;;;;;2.72;1.80;;;;;;;;;;4875981;29;20051;-72
2022/05/04 14:23:14;;;;;;;1.08;1.08;;;;;;;;;;4894596;29;20037;-73
2022/05/04 14:25:40;;;;;;;2.65;2.10;;;;;;;;;;4891669;29;20693;-72
2022/05/04 14:28:06;;;;;;;2.38;1.33;;;;;;;;;;4891812;29;20045;-72
2022/05/04 14:30:34;;;;;;;2.05;1.88;;;;;;;;;;4892404;29;20056;-71
2022/05/04 14:33:00;;;;;;;2.15;1.77;;;;;;;;;;4892190;29;20751;-71
2022/05/04 14:35:27;;;;;;;2.95;2.20;;;;;;;;;;4890887;29;20037;-72
2022/05/04 14:37:53;;;;;;;3.70;2.42;;;;;;;;;;4888415;29;20045;-72
2022/05/04 14:40:19;;;;;;;2.10;1.90;;;;;;;;;;4893717;29;20508;-72
2022/05/04 14:42:45;;;;;;;2.40;2.20;;;;;;;;;;4892206;29;20052;-72
2022/05/04 14:45:11;;;;;;;4.25;2.50;;;;;;;;;;4892653;29;20135;-72
2022/05/04 14:47:38;;;;;;;9.95;2.50;;;;;;;;;;4891989;29;20041;-71
2022/05/04 14:50:04;;;;;;;2.55;2.33;;;;;;;;;;4892578;29;20151;-72
2022/05/04 14:52:30;;;;;;;3.83;2.38;;;;;;;;;;4892316;29;20508;-72
2022/05/04 14:54:56;;;;;;;5.05;2.45;;;;;;;;;;4891825;29;20131;-72
2022/05/04 14:57:23;;;;;;;2.22;2.00;;;;;;;;;;4891940;29;20132;-71
2022/05/04 14:59:49;;;;;;;9.07;1.98;;;;;;;;;;4891811;29;20079;-71
2022/05/04 15:02:15;;;;;;;11.88;4.00;;;;;;;;;;4875062;29;20515;-71
2022/05/04 15:07:25;;;;;;;2.17;2.00;;;;;;;;;;4892729;29;20048;-72
2022/05/04 15:09:51;;;;;;;3.28;1.88;;;;;;;;;;4876001;29;20055;-72
2022/05/04 15:12:16;;;;;;;1.63;1.52;;;;;;;;;;4896258;29;20048;-72
2022/05/04 15:14:43;;;;;;;1.50;1.40;;;;;;;;;;4895012;29;20089;-73
2022/05/04 15:17:09;;;;;;;2.47;2.28;;;;;;;;;;4894739;29;20320;-72
2022/05/04 15:19:35;;;;;;;4.85;2.20;;;;;;;;;;4882124;29;20601;-72
2022/05/04 15:22:01;;;;;;;2.65;2.20;;;;;;;;;;4877407;29;20044;-72
2022/05/04 15:24:27;;;;;;;2.58;2.38;;;;;;;;;;4896898;29;20143;-73
2022/05/04 15:26:53;;;;;;;2.58;2.38;;;;;;;;;;4892958;29;20216;-74
2022/05/04 15:29:21;;;;;;;2.20;1.98;;;;;;;;;;4892426;29;20052;-72
2022/05/04 15:31:49;;;;;;;2.42;2.22;;;;;;;;;;4890617;29;20044;-73
2022/05/04 15:34:18;;;;;;;9.20;2.95;;;;;;;;;;4891894;29;20075;-73
2022/05/04 15:36:44;;;;;;;3.30;2.40;;;;;;;;;;4892304;29;20495;-71
2022/05/04 15:39:10;;;;;;;2.50;1.83;;;;;;;;;;4872591;29;20542;-73
2022/05/04 15:41:36;;;;;;;4.70;1.80;;;;;;;;;;4895700;29;20044;-72
2022/05/04 15:44:03;;;;;;;3.25;2.03;;;;;;;;;;4893743;29;20567;-72
2022/05/04 15:46:30;;;;;;;2.75;1.80;;;;;;;;;;4893844;29;20440;-72
2022/05/04 15:48:56;;;;;;;2.38;1.90;;;;;;;;;;4894024;29;20072;-71
2022/05/04 15:51:23;;;;;;;4.78;1.95;;;;;;;;;;4894513;29;20538;-71
2022/05/04 15:53:49;;;;;;;1.83;1.45;;;;;;;;;;4898031;29;20037;-72
2022/05/04 15:56:16;;;;;;;3.75;1.75;;;;;;;;;;4891009;29;20048;-73
2022/05/04 15:58:42;;;;;;;1.52;1.50;;;;;;;;;;4909476;29;20104;-74
2022/05/04 16:01:08;;;;;;;1.67;1.58;;;;;;;;;;4914598;29;20075;-73
2022/05/04 16:06:18;;;;;;;1.85;1.40;;;;;;;;;;4914561;29;20092;-73
2022/05/04 16:08:44;;;;;;;1.90;1.80;;;;;;;;;;4914208;29;20051;-74
2022/05/04 16:11:10;;;;;;;1.50;1.40;;;;;;;;;;4914818;29;20044;-74
2022/05/04 16:13:36;;;;;;;2.42;1.60;;;;;;;;;;4897113;29;20498;-74
2022/05/04 16:16:02;;;;;;;1.95;1.73;;;;;;;;;;4913393;29;20099;-73
2022/05/04 16:23:57;;;;;;;1.42;1.42;;;;;;;;;;4914074;29;20040;-75
2022/05/04 16:26:23;;;;;;;2.10;1.88;;;;;;;;;;4914496;29;20048;-74
2022/05/04 16:28:48;;;;;;;2.78;1.83;;;;;;;;;;4915196;29;20955;-72
2022/05/04 16:31:15;;;;;;;2.20;2.10;;;;;;;;;;4910408;29;20116;-72
2022/05/04 16:33:41;;;;;;;2.20;2.00;;;;;;;;;;4912108;29;20138;-72
2022/05/04 16:36:07;;;;;;;1.90;1.80;;;;;;;;;;4912097;29;20136;-72
2022/05/04 16:38:34;;;;;;;1.98;1.88;;;;;;;;;;4913466;29;20044;-72
2022/05/04 16:41:02;;;;;;;2.63;1.55;;;;;;;;;;4913616;29;20054;-71
2022/05/04 16:43:29;;;;;;;3.80;1.52;;;;;;;;;;4896957;29;20120;-72
2022/05/04 16:45:54;;;;;;;1.45;1.35;;;;;;;;;;4913392;29;20100;-72
2022/05/04 16:48:21;;;;;;;2.83;1.20;;;;;;;;;;4912263;29;20047;-71
2022/05/04 16:50:47;;;;;;;1.40;1.30;;;;;;;;;;4912716;29;20143;-72
2022/05/04 16:53:14;;;;;;;4.07;1.60;;;;;;;;;;4913796;29;20823;-71
2022/05/04 16:55:40;;;;;;;4.72;1.30;;;;;;;;;;4910977;29;20060;-71
2022/05/04 16:58:06;;;;;;;1.95;1.40;;;;;;;;;;4900476;29;20090;-71
2022/05/04 17:00:32;;;;;;;2.00;1.42;;;;;;;;;;4914473;29;20060;-71
2022/05/04 17:02:58;;;;;;;2.70;1.40;;;;;;;;;;4914210;29;20083;-71
2022/05/04 17:05:24;;;;;;;1.58;1.50;;;;;;;;;;4900170;29;20052;-72
2022/05/04 17:07:51;;;;;;;2.35;1.70;;;;;;;;;;4913141;29;20400;-71
2022/05/04 17:10:17;;;;;;;2.05;1.80;;;;;;;;;;4913402;29;20075;-72
2022/05/04 17:12:43;;;;;;;2.78;2.15;;;;;;;;;;4895984;29;20058;-71
2022/05/04 17:15:09;;;;;;;2.22;1.75;;;;;;;;;;4896487;29;20036;-72
2022/05/04 17:17:42;;;;;;;1.90;1.77;;;;;;;;;;4910872;29;20530;-72
2022/05/04 17:20:11;;;;;;;4.93;2.00;;;;;;;;;;4913538;29;20056;-72
2022/05/04 17:22:37;;;;;;;2.30;1.60;;;;;;;;;;4912983;29;20038;-71
2022/05/04 17:25:03;;;;;;;1.90;1.80;;;;;;;;;;4881937;29;20130;-72
2022/05/04 17:27:29;;;;;;;2.00;1.90;;;;;;;;;;4912490;29;20530;-72
2022/05/04 17:29:55;;;;;;;2.35;2.15;;;;;;;;;;4911938;29;20047;-72
2022/05/04 17:37:51;;;;;;;4.53;1.75;;;;;;;;;;4909887;29;20068;-71
2022/05/04 17:40:17;;;;;;;3.97;1.98;;;;;;;;;;4894700;29;20087;-71
2022/05/04 17:42:43;;;;;;;6.72;2.10;;;;;;;;;;4896240;29;20051;-73
2022/05/04 17:45:09;;;;;;;1.63;1.50;;;;;;;;;;4910527;29;20043;-71
2022/05/04 17:47:35;;;;;;;3.28;1.88;;;;;;;;;;4912781;29;20044;-72
2022/05/04 17:50:01;;;;;;;2.22;2.05;;;;;;;;;;4912999;29;20050;-71
2022/05/04 17:52:29;;;;;;;2.00;1.90;;;;;;;;;;4895106;29;20040;-71
2022/05/04 17:54:55;;;;;;;4.80;2.00;;;;;;;;;;4903500;29;20499;-72
2022/05/04 17:57:21;;;;;;;2.22;2.03;;;;;;;;;;4913400;29;20155;-71
2022/05/04 17:59:47;;;;;;;3.40;2.30;;;;;;;;;;4912837;29;20489;-71
2022/05/04 18:04:57;;;;;;;3.03;2.17;;;;;;;;;;4910422;29;20470;-72
2022/05/04 18:07:23;;;;;;;1.65;1.55;;;;;;;;;;4912436;29;20076;-71
2022/05/04 18:09:49;;;;;;;2.35;1.90;;;;;;;;;;4914549;29;20219;-71
2022/05/04 18:12:19;;;;;;;3.35;2.10;;;;;;;;;;4880284;29;20123;-72
2022/05/04 18:14:44;;;;;;;2.00;1.90;;;;;;;;;;4894195;29;20101;-71
2022/05/04 18:17:11;;;;;;;5.80;2.70;;;;;;;;;;4913547;29;20112;-74
2022/05/04 18:19:37;;;;;;;2.95;2.30;;;;;;;;;;4913149;29;20055;-71
2022/05/04 18:22:03;;;;;;;2.80;2.40;;;;;;;;;;4912123;29;20113;-72
2022/05/04 18:24:29;;;;;;;3.95;2.40;;;;;;;;;;4896165;29;20046;-73
2022/05/04 18:26:55;;;;;;;2.78;2.50;;;;;;;;;;4910808;29;20104;-72
2022/05/04 18:29:21;;;;;;;2.53;2.30;;;;;;;;;;4911328;29;20040;-72
2022/05/04 18:31:47;;;;;;;2.00;1.80;;;;;;;;;;4911723;29;20538;-71
2022/05/04 18:34:14;;;;;;;3.60;2.15;;;;;;;;;;4913028;29;20074;-72
2022/05/04 18:36:40;;;;;;;2.30;2.20;;;;;;;;;;4912727;29;20526;-72
2022/05/04 18:39:07;;;;;;;3.80;2.15;;;;;;;;;;4912222;29;20870;-72
2022/05/04 18:41:33;;;;;;;2.28;2.17;;;;;;;;;;4911346;29;20139;-72
2022/05/04 18:43:59;;;;;;;4.72;2.25;;;;;;;;;;4911500;29;20419;-72
2022/05/04 18:46:25;;;;;;;2.65;2.10;;;;;;;;;;4915418;29;20056;-72
2022/05/04 18:48:51;;;;;;;11.02;2.40;;;;;;;;;;4916419;29;20044;-72
2022/05/04 18:51:17;;;;;;;3.75;2.92;;;;;;;;;;4912741;29;20119;-71
2022/05/04 18:53:42;;;;;;;3.53;2.15;;;;;;;;;;4914448;29;20071;-71
2022/05/04 18:56:09;;;;;;;3.58;1.95;;;;;;;;;;4916426;29;20040;-71
2022/05/04 18:58:35;;;;;;;2.70;2.20;;;;;;;;;;4917428;29;20043;-71
2022/05/04 19:01:02;;;;;;;8.18;2.67;;;;;;;;;;4899871;29;20080;-72
2022/05/04 19:03:28;;;;;;;2.10;2.00;;;;;;;;;;4916748;29;20055;-72
2022/05/04 19:05:58;;;;;;;3.05;1.95;;;;;;;;;;4917825;29;20059;-72
2022/05/04 19:08:26;;;;;;;3.90;2.00;;;;;;;;;;4919179;29;20044;-72
2022/05/04 19:10:52;;;;;;;4.63;2.30;;;;;;;;;;4902910;29;20454;-71
2022/05/04 19:13:18;;;;;;;2.20;2.10;;;;;;;;;;4918725;29;20043;-73
2022/05/04 19:15:45;;;;;;;2.97;2.08;;;;;;;;;;4919012;29;20051;-72
2022/05/04 19:18:11;;;;;;;2.10;1.90;;;;;;;;;;4919475;29;20137;-71
2022/05/04 19:20:37;;;;;;;1.83;1.73;;;;;;;;;;4918989;29;20120;-71
2022/05/04 19:23:03;;;;;;;2.92;2.03;;;;;;;;;;4918094;29;20032;-71
2022/05/04 19:25:29;;;;;;;5.25;2.13;;;;;;;;;;4916943;29;20048;-72
2022/05/04 19:27:55;;;;;;;2.20;2.05;;;;;;;;;;4917171;29;20529;-71
2022/05/04 19:30:21;;;;;;;2.72;2.20;;;;;;;;;;4916961;29;20044;-71
2022/05/04 19:32:47;;;;;;;2.22;2.03;;;;;;;;;;4916735;29;20044;-73
2022/05/04 19:35:13;;;;;;;2.03;1.88;;;;;;;;;;4900322;29;20121;-73
2022/05/04 19:37:39;;;;;;;2.83;2.03;;;;;;;;;;4902272;29;20040;-73
2022/05/04 19:40:05;;;;;;;1.65;1.63;;;;;;;;;;4918947;29;20103;-71